sensor_id;sensor_type;location;lat;lon;timestamp;P1;durP1;ratioP1;P2;durP2;ratioP2
53833;SDS011;39735;51.432;5.482;2022-11-23T00:00:30;32.47;;;6.00;;
53833;SDS011;39735;51.432;5.482;2022-11-23T00:02:56;37.38;;;6.43;;
53833;SDS011;39735;51.432;5.482;2022-11-23T00:05:22;43.25;;;5.78;;
53833;SDS011;39735;51.432;5.482;2022-11-23T00:07:48;33.30;;;7.25;;
53833;SDS011;39735;51.432;5.482;2022-11-23T00:10:13;41.55;;;8.48;;
53833;SDS011;39735;51.432;5.482;2022-11-23T00:12:38;46.72;;;8.20;;
53833;SDS011;39735;51.432;5.482;2022-11-23T00:15:04;30.35;;;6.60;;
53833;SDS011;39735;51.432;5.482;2022-11-23T00:17:30;32.40;;;5.82;;
53833;SDS011;39735;51.432;5.482;2022-11-23T00:19:56;19.80;;;4.32;;
53833;SDS011;39735;51.432;5.482;2022-11-23T00:22:21;19.65;;;4.70;;
53833;SDS011;39735;51.432;5.482;2022-11-23T00:24:47;31.33;;;5.90;;
53833;SDS011;39735;51.432;5.482;2022-11-23T00:27:12;34.05;;;6.82;;
53833;SDS011;39735;51.432;5.482;2022-11-23T00:29:38;35.13;;;6.20;;
53833;SDS011;39735;51.432;5.482;2022-11-23T00:32:03;24.08;;;4.90;;
53833;SDS011;39735;51.432;5.482;2022-11-23T00:34:28;33.88;;;7.28;;
53833;SDS011;39735;51.432;5.482;2022-11-23T00:36:54;40.83;;;7.40;;
53833;SDS011;39735;51.432;5.482;2022-11-23T00:39:19;29.80;;;5.43;;
53833;SDS011;39735;51.432;5.482;2022-11-23T00:41:44;34.63;;;7.18;;
53833;SDS011;39735;51.432;5.482;2022-11-23T00:44:10;29.58;;;6.97;;
53833;SDS011;39735;51.432;5.482;2022-11-23T00:46:35;42.13;;;6.90;;
53833;SDS011;39735;51.432;5.482;2022-11-23T00:49:00;28.00;;;6.43;;
53833;SDS011;39735;51.432;5.482;2022-11-23T00:51:27;23.73;;;4.60;;
53833;SDS011;39735;51.432;5.482;2022-11-23T00:53:53;27.02;;;5.30;;
53833;SDS011;39735;51.432;5.482;2022-11-23T00:56:19;44.85;;;7.15;;
53833;SDS011;39735;51.432;5.482;2022-11-23T00:58:48;28.88;;;4.55;;
53833;SDS011;39735;51.432;5.482;2022-11-23T01:01:15;19.23;;;4.40;;
53833;SDS011;39735;51.432;5.482;2022-11-23T01:03:42;12.20;;;4.07;;
53833;SDS011;39735;51.432;5.482;2022-11-23T01:06:13;12.88;;;4.38;;
53833;SDS011;39735;51.432;5.482;2022-11-23T01:08:40;16.45;;;4.65;;
53833;SDS011;39735;51.432;5.482;2022-11-23T01:11:07;22.73;;;4.75;;
53833;SDS011;39735;51.432;5.482;2022-11-23T01:13:38;13.68;;;5.32;;
53833;SDS011;39735;51.432;5.482;2022-11-23T01:16:06;32.42;;;5.50;;
53833;SDS011;39735;51.432;5.482;2022-11-23T01:18:41;29.38;;;5.30;;
53833;SDS011;39735;51.432;5.482;2022-11-23T01:21:07;44.05;;;5.90;;
53833;SDS011;39735;51.432;5.482;2022-11-23T01:23:32;27.02;;;5.50;;
53833;SDS011;39735;51.432;5.482;2022-11-23T01:26:02;28.05;;;4.45;;
53833;SDS011;39735;51.432;5.482;2022-11-23T01:28:34;28.08;;;4.85;;
53833;SDS011;39735;51.432;5.482;2022-11-23T01:31:05;24.55;;;4.15;;
53833;SDS011;39735;51.432;5.482;2022-11-23T01:33:31;34.53;;;4.30;;
53833;SDS011;39735;51.432;5.482;2022-11-23T01:35:56;30.30;;;5.90;;
53833;SDS011;39735;51.432;5.482;2022-11-23T01:38:22;20.77;;;6.97;;
53833;SDS011;39735;51.432;5.482;2022-11-23T01:40:47;30.90;;;7.95;;
53833;SDS011;39735;51.432;5.482;2022-11-23T01:43:13;37.58;;;7.70;;
53833;SDS011;39735;51.432;5.482;2022-11-23T01:45:55;36.05;;;5.00;;
53833;SDS011;39735;51.432;5.482;2022-11-23T01:48:43;12.43;;;4.03;;
53833;SDS011;39735;51.432;5.482;2022-11-23T01:51:13;17.85;;;5.15;;
53833;SDS011;39735;51.432;5.482;2022-11-23T01:53:41;23.65;;;3.80;;
53833;SDS011;39735;51.432;5.482;2022-11-23T01:56:07;19.80;;;3.30;;
53833;SDS011;39735;51.432;5.482;2022-11-23T01:58:36;16.95;;;3.85;;
53833;SDS011;39735;51.432;5.482;2022-11-23T02:01:04;20.02;;;4.20;;
53833;SDS011;39735;51.432;5.482;2022-11-23T02:03:29;23.05;;;6.03;;
53833;SDS011;39735;51.432;5.482;2022-11-23T02:05:58;12.30;;;3.47;;
53833;SDS011;39735;51.432;5.482;2022-11-23T02:08:25;10.05;;;2.85;;
53833;SDS011;39735;51.432;5.482;2022-11-23T02:10:52;19.80;;;5.38;;
53833;SDS011;39735;51.432;5.482;2022-11-23T02:13:18;23.77;;;4.68;;
53833;SDS011;39735;51.432;5.482;2022-11-23T02:15:44;31.52;;;3.95;;
53833;SDS011;39735;51.432;5.482;2022-11-23T02:18:11;18.30;;;3.85;;
53833;SDS011;39735;51.432;5.482;2022-11-23T02:20:39;13.93;;;3.70;;
53833;SDS011;39735;51.432;5.482;2022-11-23T02:28:22;36.08;;;4.50;;
53833;SDS011;39735;51.432;5.482;2022-11-23T02:30:50;28.40;;;5.40;;
53833;SDS011;39735;51.432;5.482;2022-11-23T02:33:17;25.02;;;5.18;;
53833;SDS011;39735;51.432;5.482;2022-11-23T02:35:49;29.50;;;5.13;;
53833;SDS011;39735;51.432;5.482;2022-11-23T02:38:16;29.63;;;4.15;;
53833;SDS011;39735;51.432;5.482;2022-11-23T02:40:42;28.00;;;4.60;;
53833;SDS011;39735;51.432;5.482;2022-11-23T02:43:08;26.27;;;5.72;;
53833;SDS011;39735;51.432;5.482;2022-11-23T02:48:01;27.38;;;4.28;;
53833;SDS011;39735;51.432;5.482;2022-11-23T02:50:26;31.13;;;5.40;;
53833;SDS011;39735;51.432;5.482;2022-11-23T02:52:52;37.83;;;4.20;;
53833;SDS011;39735;51.432;5.482;2022-11-23T02:55:17;25.60;;;5.50;;
53833;SDS011;39735;51.432;5.482;2022-11-23T02:57:42;15.52;;;3.17;;
53833;SDS011;39735;51.432;5.482;2022-11-23T03:00:08;31.45;;;5.05;;
53833;SDS011;39735;51.432;5.482;2022-11-23T03:02:34;26.92;;;3.65;;
53833;SDS011;39735;51.432;5.482;2022-11-23T03:04:59;22.50;;;4.57;;
53833;SDS011;39735;51.432;5.482;2022-11-23T03:07:24;13.82;;;5.25;;
53833;SDS011;39735;51.432;5.482;2022-11-23T03:09:50;36.10;;;7.03;;
53833;SDS011;39735;51.432;5.482;2022-11-23T03:12:15;37.03;;;5.05;;
53833;SDS011;39735;51.432;5.482;2022-11-23T03:14:40;22.70;;;5.65;;
53833;SDS011;39735;51.432;5.482;2022-11-23T03:17:06;31.27;;;3.63;;
53833;SDS011;39735;51.432;5.482;2022-11-23T03:19:31;35.90;;;5.28;;
53833;SDS011;39735;51.432;5.482;2022-11-23T03:21:57;26.75;;;4.97;;
53833;SDS011;39735;51.432;5.482;2022-11-23T03:24:22;19.80;;;3.60;;
53833;SDS011;39735;51.432;5.482;2022-11-23T03:26:47;23.58;;;6.55;;
53833;SDS011;39735;51.432;5.482;2022-11-23T03:29:13;29.23;;;5.32;;
53833;SDS011;39735;51.432;5.482;2022-11-23T03:31:38;31.15;;;5.40;;
53833;SDS011;39735;51.432;5.482;2022-11-23T03:34:04;37.95;;;4.85;;
53833;SDS011;39735;51.432;5.482;2022-11-23T03:36:29;18.92;;;3.47;;
53833;SDS011;39735;51.432;5.482;2022-11-23T03:38:54;13.50;;;5.10;;
53833;SDS011;39735;51.432;5.482;2022-11-23T03:41:20;17.48;;;3.20;;
53833;SDS011;39735;51.432;5.482;2022-11-23T03:43:45;21.75;;;3.90;;
53833;SDS011;39735;51.432;5.482;2022-11-23T03:46:11;17.17;;;4.25;;
53833;SDS011;39735;51.432;5.482;2022-11-23T03:48:36;15.20;;;4.45;;
53833;SDS011;39735;51.432;5.482;2022-11-23T03:51:01;21.52;;;3.80;;
53833;SDS011;39735;51.432;5.482;2022-11-23T03:53:27;33.92;;;4.85;;
53833;SDS011;39735;51.432;5.482;2022-11-23T03:55:52;40.42;;;4.22;;
53833;SDS011;39735;51.432;5.482;2022-11-23T03:58:20;31.58;;;3.78;;
53833;SDS011;39735;51.432;5.482;2022-11-23T04:00:45;31.17;;;4.90;;
53833;SDS011;39735;51.432;5.482;2022-11-23T04:03:11;38.75;;;5.95;;
53833;SDS011;39735;51.432;5.482;2022-11-23T04:05:36;32.88;;;5.93;;
53833;SDS011;39735;51.432;5.482;2022-11-23T04:08:01;32.22;;;6.72;;
53833;SDS011;39735;51.432;5.482;2022-11-23T04:10:27;20.17;;;4.25;;
53833;SDS011;39735;51.432;5.482;2022-11-23T04:12:52;29.02;;;5.10;;
53833;SDS011;39735;51.432;5.482;2022-11-23T04:15:18;23.05;;;3.30;;
53833;SDS011;39735;51.432;5.482;2022-11-23T04:17:44;35.63;;;4.78;;
53833;SDS011;39735;51.432;5.482;2022-11-23T04:20:09;26.00;;;4.68;;
53833;SDS011;39735;51.432;5.482;2022-11-23T04:22:35;24.90;;;5.13;;
53833;SDS011;39735;51.432;5.482;2022-11-23T04:25:00;32.88;;;5.05;;
53833;SDS011;39735;51.432;5.482;2022-11-23T04:27:25;28.70;;;4.38;;
53833;SDS011;39735;51.432;5.482;2022-11-23T04:29:51;25.17;;;4.72;;
53833;SDS011;39735;51.432;5.482;2022-11-23T04:32:16;33.65;;;5.63;;
53833;SDS011;39735;51.432;5.482;2022-11-23T04:34:41;32.35;;;6.60;;
53833;SDS011;39735;51.432;5.482;2022-11-23T04:37:07;20.50;;;5.70;;
53833;SDS011;39735;51.432;5.482;2022-11-23T04:39:32;22.40;;;4.95;;
53833;SDS011;39735;51.432;5.482;2022-11-23T04:41:57;20.20;;;4.95;;
53833;SDS011;39735;51.432;5.482;2022-11-23T04:44:23;28.17;;;4.35;;
53833;SDS011;39735;51.432;5.482;2022-11-23T04:46:48;24.25;;;5.45;;
53833;SDS011;39735;51.432;5.482;2022-11-23T04:49:15;32.30;;;4.40;;
53833;SDS011;39735;51.432;5.482;2022-11-23T04:51:40;37.60;;;5.53;;
53833;SDS011;39735;51.432;5.482;2022-11-23T04:54:05;27.13;;;4.30;;
53833;SDS011;39735;51.432;5.482;2022-11-23T04:56:31;30.73;;;5.22;;
53833;SDS011;39735;51.432;5.482;2022-11-23T04:58:56;25.73;;;3.47;;
53833;SDS011;39735;51.432;5.482;2022-11-23T05:01:21;34.75;;;5.88;;
53833;SDS011;39735;51.432;5.482;2022-11-23T05:03:47;27.45;;;5.35;;
53833;SDS011;39735;51.432;5.482;2022-11-23T05:06:12;30.85;;;5.35;;
53833;SDS011;39735;51.432;5.482;2022-11-23T05:08:38;19.73;;;4.72;;
53833;SDS011;39735;51.432;5.482;2022-11-23T05:11:03;36.95;;;4.68;;
53833;SDS011;39735;51.432;5.482;2022-11-23T05:13:28;29.10;;;4.68;;
53833;SDS011;39735;51.432;5.482;2022-11-23T05:15:54;27.05;;;4.60;;
53833;SDS011;39735;51.432;5.482;2022-11-23T05:18:19;39.03;;;5.57;;
53833;SDS011;39735;51.432;5.482;2022-11-23T05:20:45;29.92;;;4.90;;
53833;SDS011;39735;51.432;5.482;2022-11-23T05:23:10;32.20;;;4.35;;
53833;SDS011;39735;51.432;5.482;2022-11-23T05:25:36;33.15;;;5.97;;
53833;SDS011;39735;51.432;5.482;2022-11-23T05:28:02;42.72;;;5.63;;
53833;SDS011;39735;51.432;5.482;2022-11-23T05:30:27;33.28;;;7.43;;
53833;SDS011;39735;51.432;5.482;2022-11-23T05:32:53;27.52;;;6.35;;
53833;SDS011;39735;51.432;5.482;2022-11-23T05:35:18;42.00;;;5.40;;
53833;SDS011;39735;51.432;5.482;2022-11-23T05:37:43;49.35;;;6.97;;
53833;SDS011;39735;51.432;5.482;2022-11-23T05:40:09;21.55;;;4.97;;
53833;SDS011;39735;51.432;5.482;2022-11-23T05:42:35;40.35;;;5.53;;
53833;SDS011;39735;51.432;5.482;2022-11-23T05:45:01;33.20;;;4.18;;
53833;SDS011;39735;51.432;5.482;2022-11-23T05:47:26;45.20;;;5.15;;
53833;SDS011;39735;51.432;5.482;2022-11-23T05:49:52;43.58;;;6.28;;
53833;SDS011;39735;51.432;5.482;2022-11-23T05:52:17;48.45;;;5.50;;
53833;SDS011;39735;51.432;5.482;2022-11-23T05:54:43;34.95;;;4.38;;
53833;SDS011;39735;51.432;5.482;2022-11-23T05:57:08;34.80;;;4.80;;
53833;SDS011;39735;51.432;5.482;2022-11-23T05:59:34;73.22;;;13.70;;
53833;SDS011;39735;51.432;5.482;2022-11-23T06:02:00;57.13;;;8.07;;
53833;SDS011;39735;51.432;5.482;2022-11-23T06:04:25;24.23;;;3.88;;
53833;SDS011;39735;51.432;5.482;2022-11-23T06:06:50;29.55;;;4.78;;
53833;SDS011;39735;51.432;5.482;2022-11-23T06:09:18;28.40;;;4.28;;
53833;SDS011;39735;51.432;5.482;2022-11-23T06:11:44;47.88;;;6.97;;
53833;SDS011;39735;51.432;5.482;2022-11-23T06:14:09;31.25;;;5.75;;
53833;SDS011;39735;51.432;5.482;2022-11-23T06:16:34;45.03;;;5.60;;
53833;SDS011;39735;51.432;5.482;2022-11-23T06:19:00;35.67;;;5.45;;
53833;SDS011;39735;51.432;5.482;2022-11-23T06:21:25;27.60;;;4.68;;
53833;SDS011;39735;51.432;5.482;2022-11-23T06:23:50;28.95;;;4.30;;
53833;SDS011;39735;51.432;5.482;2022-11-23T06:26:16;37.15;;;6.05;;
53833;SDS011;39735;51.432;5.482;2022-11-23T06:28:41;49.88;;;8.20;;
53833;SDS011;39735;51.432;5.482;2022-11-23T06:31:08;45.58;;;9.43;;
53833;SDS011;39735;51.432;5.482;2022-11-23T06:33:34;55.70;;;7.10;;
53833;SDS011;39735;51.432;5.482;2022-11-23T06:36:00;42.17;;;6.80;;
53833;SDS011;39735;51.432;5.482;2022-11-23T06:38:26;36.97;;;5.72;;
53833;SDS011;39735;51.432;5.482;2022-11-23T06:40:52;42.72;;;5.05;;
53833;SDS011;39735;51.432;5.482;2022-11-23T06:43:18;37.67;;;6.90;;
53833;SDS011;39735;51.432;5.482;2022-11-23T06:45:43;36.47;;;6.32;;
53833;SDS011;39735;51.432;5.482;2022-11-23T06:48:09;32.35;;;4.18;;
53833;SDS011;39735;51.432;5.482;2022-11-23T06:50:34;20.77;;;4.35;;
53833;SDS011;39735;51.432;5.482;2022-11-23T06:53:00;24.40;;;3.55;;
53833;SDS011;39735;51.432;5.482;2022-11-23T06:55:25;40.00;;;5.70;;
53833;SDS011;39735;51.432;5.482;2022-11-23T06:57:51;28.77;;;8.35;;
53833;SDS011;39735;51.432;5.482;2022-11-23T07:00:17;35.78;;;8.00;;
53833;SDS011;39735;51.432;5.482;2022-11-23T07:02:43;26.15;;;4.13;;
53833;SDS011;39735;51.432;5.482;2022-11-23T07:05:16;44.53;;;7.60;;
53833;SDS011;39735;51.432;5.482;2022-11-23T07:07:41;26.83;;;4.75;;
53833;SDS011;39735;51.432;5.482;2022-11-23T07:10:06;41.65;;;4.60;;
53833;SDS011;39735;51.432;5.482;2022-11-23T07:12:32;35.17;;;4.90;;
53833;SDS011;39735;51.432;5.482;2022-11-23T07:14:57;30.58;;;3.30;;
53833;SDS011;39735;51.432;5.482;2022-11-23T07:17:23;20.42;;;4.55;;
53833;SDS011;39735;51.432;5.482;2022-11-23T07:19:48;25.02;;;4.40;;
53833;SDS011;39735;51.432;5.482;2022-11-23T07:22:14;28.33;;;5.00;;
53833;SDS011;39735;51.432;5.482;2022-11-23T07:24:39;27.88;;;4.93;;
53833;SDS011;39735;51.432;5.482;2022-11-23T07:27:04;36.85;;;5.43;;
53833;SDS011;39735;51.432;5.482;2022-11-23T07:29:30;31.58;;;5.05;;
53833;SDS011;39735;51.432;5.482;2022-11-23T07:31:55;30.15;;;4.90;;
53833;SDS011;39735;51.432;5.482;2022-11-23T07:34:20;28.23;;;5.20;;
53833;SDS011;39735;51.432;5.482;2022-11-23T07:36:46;32.22;;;4.57;;
53833;SDS011;39735;51.432;5.482;2022-11-23T07:39:11;33.53;;;4.13;;
53833;SDS011;39735;51.432;5.482;2022-11-23T07:41:36;30.90;;;5.15;;
53833;SDS011;39735;51.432;5.482;2022-11-23T07:44:02;35.70;;;4.85;;
53833;SDS011;39735;51.432;5.482;2022-11-23T07:46:27;38.40;;;5.45;;
53833;SDS011;39735;51.432;5.482;2022-11-23T07:48:53;25.98;;;4.28;;
53833;SDS011;39735;51.432;5.482;2022-11-23T07:51:23;24.67;;;5.25;;
53833;SDS011;39735;51.432;5.482;2022-11-23T07:53:48;44.40;;;4.85;;
53833;SDS011;39735;51.432;5.482;2022-11-23T07:56:14;27.70;;;4.22;;
53833;SDS011;39735;51.432;5.482;2022-11-23T07:58:39;22.42;;;3.30;;
53833;SDS011;39735;51.432;5.482;2022-11-23T08:01:04;50.75;;;4.57;;
53833;SDS011;39735;51.432;5.482;2022-11-23T08:03:30;31.98;;;5.18;;
53833;SDS011;39735;51.432;5.482;2022-11-23T08:05:55;30.05;;;4.72;;
53833;SDS011;39735;51.432;5.482;2022-11-23T08:08:20;38.85;;;4.63;;
53833;SDS011;39735;51.432;5.482;2022-11-23T08:10:46;22.65;;;3.58;;
53833;SDS011;39735;51.432;5.482;2022-11-23T08:13:13;33.10;;;6.43;;
53833;SDS011;39735;51.432;5.482;2022-11-23T08:15:38;24.95;;;4.25;;
53833;SDS011;39735;51.432;5.482;2022-11-23T08:18:03;33.10;;;4.03;;
53833;SDS011;39735;51.432;5.482;2022-11-23T08:20:29;16.65;;;3.72;;
53833;SDS011;39735;51.432;5.482;2022-11-23T08:22:55;30.92;;;7.53;;
53833;SDS011;39735;51.432;5.482;2022-11-23T08:25:24;43.22;;;4.90;;
53833;SDS011;39735;51.432;5.482;2022-11-23T08:27:57;26.58;;;4.82;;
53833;SDS011;39735;51.432;5.482;2022-11-23T08:30:24;26.73;;;4.87;;
53833;SDS011;39735;51.432;5.482;2022-11-23T08:32:50;14.35;;;3.13;;
53833;SDS011;39735;51.432;5.482;2022-11-23T08:35:16;38.05;;;6.88;;
53833;SDS011;39735;51.432;5.482;2022-11-23T08:37:41;32.15;;;4.00;;
53833;SDS011;39735;51.432;5.482;2022-11-23T08:40:06;34.50;;;3.45;;
53833;SDS011;39735;51.432;5.482;2022-11-23T08:42:32;24.55;;;4.15;;
53833;SDS011;39735;51.432;5.482;2022-11-23T08:44:57;31.33;;;3.90;;
53833;SDS011;39735;51.432;5.482;2022-11-23T08:47:24;41.38;;;7.28;;
53833;SDS011;39735;51.432;5.482;2022-11-23T08:49:50;34.03;;;5.82;;
53833;SDS011;39735;51.432;5.482;2022-11-23T08:52:15;58.20;;;6.07;;
53833;SDS011;39735;51.432;5.482;2022-11-23T08:54:40;37.47;;;3.88;;
53833;SDS011;39735;51.432;5.482;2022-11-23T08:57:06;40.97;;;4.47;;
53833;SDS011;39735;51.432;5.482;2022-11-23T08:59:31;39.25;;;4.72;;
53833;SDS011;39735;51.432;5.482;2022-11-23T09:01:58;35.40;;;5.80;;
53833;SDS011;39735;51.432;5.482;2022-11-23T09:04:23;32.72;;;3.90;;
53833;SDS011;39735;51.432;5.482;2022-11-23T09:06:51;40.15;;;6.15;;
53833;SDS011;39735;51.432;5.482;2022-11-23T09:09:17;23.50;;;5.28;;
53833;SDS011;39735;51.432;5.482;2022-11-23T09:11:42;26.80;;;4.07;;
53833;SDS011;39735;51.432;5.482;2022-11-23T09:14:07;55.25;;;10.50;;
53833;SDS011;39735;51.432;5.482;2022-11-23T09:16:33;19.95;;;4.05;;
53833;SDS011;39735;51.432;5.482;2022-11-23T09:18:58;34.53;;;4.80;;
53833;SDS011;39735;51.432;5.482;2022-11-23T09:21:23;41.53;;;6.78;;
53833;SDS011;39735;51.432;5.482;2022-11-23T09:23:53;29.23;;;4.03;;
53833;SDS011;39735;51.432;5.482;2022-11-23T09:26:19;25.02;;;3.70;;
53833;SDS011;39735;51.432;5.482;2022-11-23T09:28:44;26.48;;;3.25;;
53833;SDS011;39735;51.432;5.482;2022-11-23T09:31:09;25.70;;;4.32;;
53833;SDS011;39735;51.432;5.482;2022-11-23T09:33:35;16.77;;;3.30;;
53833;SDS011;39735;51.432;5.482;2022-11-23T09:36:01;35.80;;;5.07;;
53833;SDS011;39735;51.432;5.482;2022-11-23T09:38:28;12.57;;;3.00;;
53833;SDS011;39735;51.432;5.482;2022-11-23T09:40:57;19.52;;;3.10;;
53833;SDS011;39735;51.432;5.482;2022-11-23T09:46:28;27.38;;;5.28;;
53833;SDS011;39735;51.432;5.482;2022-11-23T09:49:12;30.02;;;3.97;;
53833;SDS011;39735;51.432;5.482;2022-11-23T09:51:41;26.15;;;5.53;;
53833;SDS011;39735;51.432;5.482;2022-11-23T09:54:14;23.80;;;3.60;;
53833;SDS011;39735;51.432;5.482;2022-11-23T09:56:50;16.38;;;4.40;;
53833;SDS011;39735;51.432;5.482;2022-11-23T10:01:58;19.30;;;3.33;;
53833;SDS011;39735;51.432;5.482;2022-11-23T10:04:24;25.42;;;3.17;;
53833;SDS011;39735;51.432;5.482;2022-11-23T10:07:02;13.43;;;2.70;;
53833;SDS011;39735;51.432;5.482;2022-11-23T10:12:28;9.52;;;2.20;;
53833;SDS011;39735;51.432;5.482;2022-11-23T10:15:03;35.78;;;3.30;;
53833;SDS011;39735;51.432;5.482;2022-11-23T10:23:15;21.60;;;5.75;;
53833;SDS011;39735;51.432;5.482;2022-11-23T10:25:46;19.58;;;2.80;;
53833;SDS011;39735;51.432;5.482;2022-11-23T10:28:15;25.98;;;2.80;;
53833;SDS011;39735;51.432;5.482;2022-11-23T10:30:51;21.40;;;4.00;;
53833;SDS011;39735;51.432;5.482;2022-11-23T10:33:25;21.40;;;2.75;;
53833;SDS011;39735;51.432;5.482;2022-11-23T10:35:54;18.73;;;2.47;;
53833;SDS011;39735;51.432;5.482;2022-11-23T10:38:20;34.55;;;4.68;;
53833;SDS011;39735;51.432;5.482;2022-11-23T10:41:04;21.58;;;3.28;;
53833;SDS011;39735;51.432;5.482;2022-11-23T10:43:33;15.05;;;2.42;;
53833;SDS011;39735;51.432;5.482;2022-11-23T10:48:52;16.58;;;2.40;;
53833;SDS011;39735;51.432;5.482;2022-11-23T10:51:31;8.55;;;2.67;;
53833;SDS011;39735;51.432;5.482;2022-11-23T10:53:59;20.75;;;3.17;;
53833;SDS011;39735;51.432;5.482;2022-11-23T10:56:27;18.13;;;6.57;;
53833;SDS011;39735;51.432;5.482;2022-11-23T10:58:53;27.58;;;4.05;;
53833;SDS011;39735;51.432;5.482;2022-11-23T11:01:19;23.70;;;2.60;;
53833;SDS011;39735;51.432;5.482;2022-11-23T11:03:48;8.65;;;2.42;;
53833;SDS011;39735;51.432;5.482;2022-11-23T11:06:48;17.40;;;2.63;;
53833;SDS011;39735;51.432;5.482;2022-11-23T11:09:16;17.33;;;2.50;;
53833;SDS011;39735;51.432;5.482;2022-11-23T11:11:44;17.08;;;3.50;;
53833;SDS011;39735;51.432;5.482;2022-11-23T11:16:45;16.70;;;2.20;;
53833;SDS011;39735;51.432;5.482;2022-11-23T11:21:54;22.17;;;2.70;;
53833;SDS011;39735;51.432;5.482;2022-11-23T11:24:21;13.18;;;2.58;;
53833;SDS011;39735;51.432;5.482;2022-11-23T11:26:58;21.98;;;3.65;;
53833;SDS011;39735;51.432;5.482;2022-11-23T11:32:01;11.40;;;2.70;;
53833;SDS011;39735;51.432;5.482;2022-11-23T11:34:34;11.23;;;2.50;;
53833;SDS011;39735;51.432;5.482;2022-11-23T11:39:48;11.82;;;2.25;;
53833;SDS011;39735;51.432;5.482;2022-11-23T11:42:17;17.23;;;1.88;;
53833;SDS011;39735;51.432;5.482;2022-11-23T11:44:46;25.52;;;2.53;;
53833;SDS011;39735;51.432;5.482;2022-11-23T11:47:21;15.60;;;3.83;;
53833;SDS011;39735;51.432;5.482;2022-11-23T11:49:51;9.60;;;1.63;;
53833;SDS011;39735;51.432;5.482;2022-11-23T11:52:20;7.75;;;2.10;;
53833;SDS011;39735;51.432;5.482;2022-11-23T11:55:09;5.78;;;1.00;;
53833;SDS011;39735;51.432;5.482;2022-11-23T11:57:44;4.53;;;1.67;;
53833;SDS011;39735;51.432;5.482;2022-11-23T12:00:14;14.70;;;2.05;;
53833;SDS011;39735;51.432;5.482;2022-11-23T12:02:49;4.65;;;2.03;;
53833;SDS011;39735;51.432;5.482;2022-11-23T12:05:23;18.73;;;1.90;;
53833;SDS011;39735;51.432;5.482;2022-11-23T12:10:29;5.18;;;1.38;;
53833;SDS011;39735;51.432;5.482;2022-11-23T12:12:58;13.85;;;2.38;;
53833;SDS011;39735;51.432;5.482;2022-11-23T12:15:26;14.00;;;2.83;;
53833;SDS011;39735;51.432;5.482;2022-11-23T12:24:11;7.15;;;2.65;;
53833;SDS011;39735;51.432;5.482;2022-11-23T12:26:52;7.68;;;2.63;;
53833;SDS011;39735;51.432;5.482;2022-11-23T12:29:32;8.30;;;1.73;;
53833;SDS011;39735;51.432;5.482;2022-11-23T12:34:40;18.98;;;3.20;;
53833;SDS011;39735;51.432;5.482;2022-11-23T12:42:59;3.95;;;0.93;;
53833;SDS011;39735;51.432;5.482;2022-11-23T12:45:43;6.82;;;1.48;;
53833;SDS011;39735;51.432;5.482;2022-11-23T12:59:09;9.00;;;2.95;;
53833;SDS011;39735;51.432;5.482;2022-11-23T13:01:39;4.57;;;1.60;;
53833;SDS011;39735;51.432;5.482;2022-11-23T13:12:16;5.82;;;2.28;;
53833;SDS011;39735;51.432;5.482;2022-11-23T13:15:00;19.70;;;2.10;;
53833;SDS011;39735;51.432;5.482;2022-11-23T13:22:45;14.15;;;2.72;;
53833;SDS011;39735;51.432;5.482;2022-11-23T13:25:18;20.02;;;4.38;;
53833;SDS011;39735;51.432;5.482;2022-11-23T13:30:34;14.32;;;1.90;;
53833;SDS011;39735;51.432;5.482;2022-11-23T13:35:53;6.65;;;1.25;;
53833;SDS011;39735;51.432;5.482;2022-11-23T13:38:24;6.05;;;1.02;;
53833;SDS011;39735;51.432;5.482;2022-11-23T13:40:51;20.85;;;2.75;;
53833;SDS011;39735;51.432;5.482;2022-11-23T13:43:24;6.82;;;1.48;;
53833;SDS011;39735;51.432;5.482;2022-11-23T13:48:52;8.55;;;1.48;;
53833;SDS011;39735;51.432;5.482;2022-11-23T13:51:23;5.47;;;2.03;;
53833;SDS011;39735;51.432;5.482;2022-11-23T13:53:58;6.85;;;2.03;;
53833;SDS011;39735;51.432;5.482;2022-11-23T13:59:24;7.93;;;2.10;;
53833;SDS011;39735;51.432;5.482;2022-11-23T14:04:31;9.43;;;1.42;;
53833;SDS011;39735;51.432;5.482;2022-11-23T14:07:02;4.70;;;1.55;;
53833;SDS011;39735;51.432;5.482;2022-11-23T14:12:30;8.93;;;1.63;;
53833;SDS011;39735;51.432;5.482;2022-11-23T14:22:54;14.25;;;1.52;;
53833;SDS011;39735;51.432;5.482;2022-11-23T14:41:41;17.92;;;2.28;;
53833;SDS011;39735;51.432;5.482;2022-11-23T14:44:11;22.17;;;2.65;;
53833;SDS011;39735;51.432;5.482;2022-11-23T14:46:37;22.20;;;2.92;;
53833;SDS011;39735;51.432;5.482;2022-11-23T14:49:23;5.15;;;1.95;;
53833;SDS011;39735;51.432;5.482;2022-11-23T14:51:48;10.20;;;2.47;;
53833;SDS011;39735;51.432;5.482;2022-11-23T14:54:14;12.80;;;2.38;;
53833;SDS011;39735;51.432;5.482;2022-11-23T14:56:41;17.42;;;3.60;;
53833;SDS011;39735;51.432;5.482;2022-11-23T14:59:18;17.00;;;2.25;;
53833;SDS011;39735;51.432;5.482;2022-11-23T15:01:47;7.55;;;2.65;;
53833;SDS011;39735;51.432;5.482;2022-11-23T15:04:25;6.22;;;2.25;;
53833;SDS011;39735;51.432;5.482;2022-11-23T15:06:58;12.10;;;1.38;;
53833;SDS011;39735;51.432;5.482;2022-11-23T15:12:22;17.35;;;2.28;;
53833;SDS011;39735;51.432;5.482;2022-11-23T15:14:48;15.10;;;2.67;;
53833;SDS011;39735;51.432;5.482;2022-11-23T15:17:19;8.82;;;1.92;;
53833;SDS011;39735;51.432;5.482;2022-11-23T15:19:52;6.47;;;1.88;;
53833;SDS011;39735;51.432;5.482;2022-11-23T15:22:24;7.85;;;1.67;;
53833;SDS011;39735;51.432;5.482;2022-11-23T15:24:51;5.07;;;1.75;;
53833;SDS011;39735;51.432;5.482;2022-11-23T15:27:20;11.27;;;2.40;;
53833;SDS011;39735;51.432;5.482;2022-11-23T15:29:50;15.30;;;2.67;;
53833;SDS011;39735;51.432;5.482;2022-11-23T15:32:26;7.43;;;1.45;;
53833;SDS011;39735;51.432;5.482;2022-11-23T15:34:53;5.70;;;2.10;;
53833;SDS011;39735;51.432;5.482;2022-11-23T15:37:20;19.65;;;3.88;;
53833;SDS011;39735;51.432;5.482;2022-11-23T15:39:46;6.10;;;2.47;;
53833;SDS011;39735;51.432;5.482;2022-11-23T15:42:14;6.82;;;2.58;;
53833;SDS011;39735;51.432;5.482;2022-11-23T15:44:42;8.90;;;2.45;;
53833;SDS011;39735;51.432;5.482;2022-11-23T15:47:10;2.75;;;1.13;;
53833;SDS011;39735;51.432;5.482;2022-11-23T15:49:40;8.27;;;3.10;;
53833;SDS011;39735;51.432;5.482;2022-11-23T15:52:06;12.23;;;1.55;;
53833;SDS011;39735;51.432;5.482;2022-11-23T15:54:36;4.57;;;3.42;;
53833;SDS011;39735;51.432;5.482;2022-11-23T15:57:05;12.70;;;3.13;;
53833;SDS011;39735;51.432;5.482;2022-11-23T15:59:49;8.23;;;2.53;;
53833;SDS011;39735;51.432;5.482;2022-11-23T16:02:26;8.63;;;1.98;;
53833;SDS011;39735;51.432;5.482;2022-11-23T16:05:26;7.00;;;2.15;;
53833;SDS011;39735;51.432;5.482;2022-11-23T16:07:56;4.63;;;1.88;;
53833;SDS011;39735;51.432;5.482;2022-11-23T16:10:24;10.75;;;2.63;;
53833;SDS011;39735;51.432;5.482;2022-11-23T16:12:57;17.90;;;2.42;;
53833;SDS011;39735;51.432;5.482;2022-11-23T16:17:56;6.10;;;1.90;;
53833;SDS011;39735;51.432;5.482;2022-11-23T16:20:23;26.88;;;2.85;;
53833;SDS011;39735;51.432;5.482;2022-11-23T16:22:49;11.50;;;2.17;;
53833;SDS011;39735;51.432;5.482;2022-11-23T16:27:57;8.43;;;1.77;;
53833;SDS011;39735;51.432;5.482;2022-11-23T16:30:33;10.15;;;1.40;;
53833;SDS011;39735;51.432;5.482;2022-11-23T16:33:00;5.47;;;2.00;;
53833;SDS011;39735;51.432;5.482;2022-11-23T16:35:25;11.95;;;2.80;;
53833;SDS011;39735;51.432;5.482;2022-11-23T16:37:51;4.70;;;3.30;;
53833;SDS011;39735;51.432;5.482;2022-11-23T16:40:16;3.47;;;3.00;;
53833;SDS011;39735;51.432;5.482;2022-11-23T16:42:42;10.25;;;4.13;;
53833;SDS011;39735;51.432;5.482;2022-11-23T16:45:07;11.07;;;2.90;;